createdAt,value
2018-06-04T00:01:06.316Z,21.99
2018-06-04T00:02:16.134Z,21.99
2018-06-04T00:03:26.222Z,21.99
2018-06-04T00:04:36.301Z,22.04
2018-06-04T00:05:46.430Z,21.99
2018-06-04T00:06:56.503Z,21.96
2018-06-04T00:08:06.593Z,21.99
2018-06-04T00:09:16.683Z,22
2018-06-04T00:10:26.235Z,21.97
2018-06-04T00:11:36.314Z,21.96
2018-06-04T00:12:46.382Z,21.86
2018-06-04T00:13:56.468Z,21.89
2018-06-04T00:15:06.555Z,21.86
2018-06-04T00:16:16.102Z,21.97
2018-06-04T00:17:25.979Z,21.89
2018-06-04T00:18:36.051Z,21.82
2018-06-04T00:19:45.865Z,21.9
2018-06-04T00:20:55.689Z,21.82
2018-06-04T00:22:05.766Z,21.94
2018-06-04T00:23:15.872Z,21.86
2018-06-04T00:24:25.694Z,21.82
2018-06-04T00:25:35.775Z,21.89
2018-06-04T00:26:45.856Z,21.8
2018-06-04T00:27:55.945Z,21.78
2018-06-04T00:29:06.040Z,21.76
2018-06-04T00:30:16.140Z,21.78
2018-06-04T00:31:26.229Z,21.8
2018-06-04T00:32:36.315Z,21.8
2018-06-04T00:33:46.138Z,21.82
2018-06-04T00:34:56.220Z,21.76
2018-06-04T00:36:06.045Z,21.89
2018-06-04T00:37:16.135Z,21.8
2018-06-04T00:38:26.210Z,21.92
2018-06-04T00:39:36.310Z,21.86
2018-06-04T00:40:46.142Z,21.83
2018-06-04T00:41:56.215Z,21.86
2018-06-04T00:43:05.760Z,21.82
2018-06-04T00:44:15.569Z,21.92
2018-06-04T00:45:25.635Z,21.85
2018-06-04T00:46:35.769Z,21.82
2018-06-04T00:47:45.844Z,21.8
2018-06-04T00:48:55.913Z,21.74
2018-06-04T00:50:06.031Z,21.74
2018-06-04T00:51:16.118Z,21.71
2018-06-04T00:52:26.181Z,21.7
2018-06-04T00:53:36.005Z,21.7
2018-06-04T00:54:46.085Z,21.74
2018-06-04T00:55:56.153Z,21.71
2018-06-04T00:57:06.251Z,21.71
2018-06-04T00:58:16.069Z,21.71
2018-06-04T00:59:25.887Z,21.73
2018-06-04T01:00:35.981Z,21.67
2018-06-04T01:01:46.063Z,21.7
2018-06-04T01:02:56.146Z,21.73
2018-06-04T01:04:05.696Z,21.73
2018-06-04T01:05:15.772Z,21.73
2018-06-04T01:06:25.856Z,21.64
2018-06-04T01:07:35.928Z,21.67
2018-06-04T01:08:45.998Z,21.71
2018-06-04T01:09:56.071Z,21.71
2018-06-04T01:11:06.127Z,21.67
2018-06-04T01:12:15.950Z,21.67
2018-06-04T01:13:26.049Z,21.71
2018-06-04T01:14:36.130Z,21.7
2018-06-04T01:15:46.219Z,21.71
2018-06-04T01:16:56.306Z,21.71
2018-06-04T01:18:06.374Z,21.68
2018-06-04T01:19:15.943Z,21.7
2018-06-04T01:20:26.025Z,21.67
2018-06-04T01:21:35.856Z,21.71
2018-06-04T01:22:45.945Z,21.74
2018-06-04T01:23:55.762Z,21.64
2018-06-04T01:25:05.859Z,21.68
2018-06-04T01:26:15.937Z,21.73
2018-06-04T01:27:26.033Z,21.7
2018-06-04T01:28:36.108Z,21.67
2018-06-04T01:29:46.194Z,21.76
2018-06-04T01:30:56.284Z,21.68
2018-06-04T01:32:06.376Z,21.68
2018-06-04T01:33:16.499Z,21.71
2018-06-04T01:34:26.322Z,21.59
2018-06-04T01:35:36.393Z,21.68
2018-06-04T01:36:46.465Z,21.68
2018-06-04T01:37:56.548Z,21.64
2018-06-04T01:39:06.609Z,21.59
2018-06-04T01:40:16.940Z,21.66
2018-06-04T01:41:26.743Z,21.66
2018-06-04T01:42:36.808Z,21.61
2018-06-04T01:43:46.892Z,21.61
2018-06-04T01:44:56.964Z,21.64
2018-06-04T01:46:07.102Z,21.64
2018-06-04T01:47:17.197Z,21.67
2018-06-04T01:48:27.274Z,21.59
2018-06-04T01:49:37.363Z,21.59
2018-06-04T01:50:47.478Z,21.55
2018-06-04T01:51:57.564Z,21.52
2018-06-04T01:53:07.127Z,21.61
2018-06-04T01:54:16.950Z,21.62
2018-06-04T01:55:27.037Z,21.59
2018-06-04T01:56:36.839Z,21.61
2018-06-04T01:57:46.916Z,21.61
2018-06-04T01:58:56.990Z,21.61
2018-06-04T02:00:07.066Z,21.55
2018-06-04T02:01:17.146Z,21.49
2018-06-04T02:02:27.294Z,21.45
2018-06-04T02:03:37.107Z,21.58
2018-06-04T02:04:47.186Z,21.49
2018-06-04T02:05:57.279Z,21.51
2018-06-04T02:07:07.362Z,21.51
2018-06-04T02:08:17.433Z,21.4
2018-06-04T02:09:27.523Z,21.48
2018-06-04T02:10:37.617Z,21.43
2018-06-04T02:11:47.697Z,21.45
2018-06-04T02:12:57.755Z,21.43
2018-06-04T02:14:07.559Z,21.43
2018-06-04T02:15:17.628Z,21.38
2018-06-04T02:16:27.441Z,21.41
2018-06-04T02:17:37.514Z,21.45
2018-06-04T02:18:47.598Z,21.43
2018-06-04T02:19:57.399Z,21.46
2018-06-04T02:21:07.468Z,21.4
2018-06-04T02:22:17.284Z,21.48
2018-06-04T02:23:27.115Z,21.37
2018-06-04T02:24:36.676Z,21.36
2018-06-04T02:25:46.765Z,21.3
2018-06-04T02:26:56.579Z,21.3
2018-06-04T02:28:06.416Z,21.3
2018-06-04T02:29:16.501Z,21.28
2018-06-04T02:30:26.590Z,21.23
2018-06-04T02:31:36.417Z,21.22
2018-06-04T02:32:46.497Z,21.21
2018-06-04T02:33:56.319Z,21.21
2018-06-04T02:35:06.423Z,21.18
2018-06-04T02:36:16.500Z,21.22
2018-06-04T02:37:26.327Z,21.12
2018-06-04T02:38:36.435Z,21.18
2018-06-04T02:39:46.264Z,21.19
2018-06-04T02:40:56.356Z,21.21
2018-06-04T02:42:06.454Z,21.22
2018-06-04T02:43:16.528Z,21.18
2018-06-04T02:44:26.617Z,21.25
2018-06-04T02:45:36.724Z,21.19
2018-06-04T02:46:46.806Z,21.22
2018-06-04T02:47:56.927Z,21.21
2018-06-04T02:49:07.068Z,21.31
2018-06-04T02:50:17.384Z,21.36
2018-06-04T02:51:27.484Z,21.34
2018-06-04T02:52:37.580Z,21.3
2018-06-04T02:53:47.667Z,21.28
2018-06-04T02:54:57.222Z,21.31
2018-06-04T02:56:07.351Z,21.36
2018-06-04T02:57:16.924Z,21.27
2018-06-04T02:58:27.326Z,21.22
2018-06-04T02:59:37.507Z,21.21
2018-06-04T03:00:47.588Z,21.25
2018-06-04T03:01:57.677Z,21.19
2018-06-04T03:03:07.789Z,21.31
2018-06-04T03:35:06.621Z,19.87
2018-06-04T03:36:16.709Z,19.85
2018-06-04T03:37:26.784Z,19.83
2018-06-04T03:38:36.850Z,19.87
2018-06-04T03:39:46.919Z,19.92
2018-06-04T03:40:56.997Z,20.11
2018-06-04T03:42:07.085Z,20.04
2018-06-04T03:43:17.177Z,20.23
2018-06-04T03:44:27.258Z,20.4
2018-06-04T03:45:37.340Z,20.46
2018-06-04T03:46:47.425Z,20.66
2018-06-04T03:47:57.497Z,20.75
2018-06-04T03:49:07.593Z,20.97
2018-06-04T03:50:17.686Z,21.18
2018-06-04T03:51:27.760Z,21.3
2018-06-04T03:52:37.852Z,21.45
2018-06-04T03:53:47.924Z,21.59
2018-06-04T03:54:57.994Z,21.73
2018-06-04T03:56:07.807Z,21.85
2018-06-04T03:57:17.388Z,21.94
2018-06-04T03:58:27.289Z,22.08
2018-06-04T03:59:37.366Z,22.18
2018-06-04T04:00:47.439Z,22.23
2018-06-04T04:01:57.611Z,22.46
2018-06-04T04:03:07.684Z,22.54
2018-06-04T04:04:17.825Z,22.67
2018-06-04T04:05:27.907Z,22.75
2018-06-04T04:06:37.973Z,22.86
2018-06-04T04:07:48.053Z,22.99
2018-06-04T04:08:58.140Z,23.1
2018-06-04T04:10:08.270Z,23.18
2018-06-04T04:11:18.361Z,23.25
2018-06-04T04:12:28.444Z,23.45
2018-06-04T04:13:38.251Z,23.55
2018-06-04T04:14:48.068Z,23.64
2018-06-04T04:15:58.234Z,23.78
2018-06-04T04:17:08.315Z,23.9
2018-06-04T04:18:18.381Z,24.51
2018-06-04T04:19:28.507Z,25.74
2018-06-04T04:20:38.612Z,26.97
2018-06-04T04:21:48.705Z,27.94
2018-06-04T04:22:58.796Z,28.76
2018-06-04T04:24:08.623Z,29.45
2018-06-04T04:25:18.441Z,30.16
2018-06-04T04:26:28.530Z,30.73
2018-06-04T04:27:38.414Z,31.31
2018-06-04T04:28:48.680Z,31.81
2018-06-04T04:29:58.491Z,32.38
2018-06-04T04:31:08.573Z,32.71
2018-06-04T04:32:18.394Z,33.09
2018-06-04T04:33:28.485Z,33.37
2018-06-04T04:34:38.565Z,33.65
2018-06-04T04:35:48.642Z,33.96
2018-06-04T04:36:58.697Z,34.15
2018-06-04T04:38:08.820Z,34.41
2018-06-04T04:39:18.915Z,34.51
2018-06-04T04:40:29.010Z,34.74
2018-06-04T04:41:39.106Z,34.91
2018-06-04T04:42:49.190Z,35.02
2018-06-04T04:43:59.276Z,35.28
2018-06-04T04:45:09.360Z,35.18
2018-06-04T04:46:19.436Z,35.24
2018-06-04T04:47:29.253Z,35.24
2018-06-04T04:48:39.335Z,35.18
2018-06-04T04:49:49.424Z,35.2
2018-06-04T04:50:59.574Z,35.2
2018-06-04T04:52:09.691Z,35.21
2018-06-04T04:53:19.782Z,35.28
2018-06-04T04:54:29.872Z,35.21
2018-06-04T04:55:39.967Z,35.31
2018-06-04T04:56:50.070Z,35.45
2018-06-04T04:57:59.387Z,35.42
2018-06-04T04:59:09.227Z,35.53
2018-06-04T05:00:19.051Z,35.46
2018-06-04T05:01:28.888Z,35.46
2018-06-04T05:02:38.950Z,35.53
2018-06-04T05:03:48.503Z,35.55
2018-06-04T05:04:58.603Z,35.46
2018-06-04T05:06:08.438Z,35.45
2018-06-04T05:07:18.550Z,35.46
2018-06-04T05:08:28.692Z,35.5
2018-06-04T05:09:38.827Z,35.45
2018-06-04T05:10:48.905Z,35.35
2018-06-04T05:11:59.014Z,35.12
2018-06-04T05:13:09.116Z,35.12
2018-06-04T05:14:19.007Z,34.97
2018-06-04T05:15:29.090Z,34.89
2018-06-04T05:16:39.159Z,35.02
2018-06-04T05:17:49.232Z,34.84
2018-06-04T05:18:59.325Z,34.83
2018-06-04T05:20:09.423Z,34.74
2018-06-04T05:21:19.523Z,34.81
2018-06-04T05:22:29.610Z,34.71
2018-06-04T05:23:39.702Z,34.93
2018-06-04T05:24:49.774Z,34.9
2018-06-04T05:25:59.843Z,34.9
2018-06-04T05:27:09.696Z,34.89
2018-06-04T05:28:19.002Z,34.84
2018-06-04T05:29:29.093Z,34.79
2018-06-04T05:30:38.916Z,34.78
2018-06-04T05:31:49.132Z,34.78
2018-06-04T05:32:59.326Z,34.83
2018-06-04T05:34:09.395Z,34.89
2018-06-04T05:35:19.239Z,34.81
2018-06-04T05:36:29.066Z,34.9
2018-06-04T05:37:39.167Z,34.9
2018-06-04T05:38:49.261Z,34.87
2018-06-04T05:39:59.397Z,34.89
2018-06-04T05:41:09.982Z,34.99
2018-06-04T05:42:19.849Z,34.87
2018-06-04T05:43:29.812Z,35.02
2018-06-04T05:44:39.647Z,34.93
2018-06-04T05:45:49.740Z,34.93
2018-06-04T05:46:59.815Z,34.9
2018-06-04T05:48:09.922Z,34.83
2018-06-04T05:49:20.061Z,34.79
2018-06-04T05:50:29.887Z,34.72
2018-06-04T05:51:39.451Z,34.71
2018-06-04T05:52:49.266Z,34.61
2018-06-04T05:53:59.355Z,34.51
2018-06-04T05:55:09.186Z,34.52
2018-06-04T05:56:19.605Z,34.49
2018-06-04T05:57:29.486Z,34.48
2018-06-04T05:58:39.555Z,34.52
2018-06-04T05:59:49.135Z,34.58
2018-06-04T06:00:59.235Z,34.46
2018-06-04T06:02:09.332Z,34.54
2018-06-04T06:03:19.428Z,34.52
2018-06-04T06:04:29.511Z,34.51
2018-06-04T06:05:39.590Z,34.4
2018-06-04T06:06:49.683Z,34.43
2018-06-04T06:07:59.756Z,34.52
2018-06-04T06:09:09.978Z,34.43
2018-06-04T06:10:20.220Z,34.43
2018-06-04T06:11:30.033Z,34.37
2018-06-04T06:12:40.131Z,34.36
2018-06-04T06:13:50.210Z,34.33
2018-06-04T06:15:00.286Z,34.18
2018-06-04T06:16:10.400Z,34.17
2018-06-04T06:17:20.218Z,34.12
2018-06-04T06:18:30.037Z,34
2018-06-04T06:19:40.115Z,34.06
2018-06-04T06:20:49.941Z,34.02
2018-06-04T06:21:59.764Z,33.96
2018-06-04T06:23:09.891Z,33.92
2018-06-04T06:24:20.003Z,33.92
2018-06-04T06:25:30.245Z,33.83
2018-06-04T06:26:40.417Z,33.74
2018-06-04T06:27:50.241Z,33.74
2018-06-04T06:29:00.327Z,33.66
2018-06-04T06:30:10.499Z,33.62
2018-06-04T06:31:20.570Z,33.53
2018-06-04T06:32:30.426Z,33.37
2018-06-04T06:33:40.510Z,33.18
2018-06-04T06:34:50.330Z,33.26
2018-06-04T06:36:00.404Z,33.09
2018-06-04T06:37:10.519Z,33.08
2018-06-04T06:38:20.606Z,32.98
2018-06-04T06:39:30.429Z,32.87
2018-06-04T06:40:40.537Z,32.75
2018-06-04T06:41:50.608Z,32.64
2018-06-04T06:43:00.208Z,32.54
2018-06-04T06:44:09.765Z,32.34
2018-06-04T06:45:19.851Z,32.42
2018-06-04T06:46:29.950Z,32.23
2018-06-04T06:47:39.792Z,32.05
2018-06-04T06:48:49.872Z,32.1
2018-06-04T06:49:59.944Z,32.03
2018-06-04T06:51:10.042Z,31.91
2018-06-04T06:52:20.122Z,31.94
2018-06-04T06:53:29.956Z,31.91
2018-06-04T06:54:40.053Z,31.77
2018-06-04T06:55:50.142Z,31.8
2018-06-04T06:56:59.984Z,31.72
2018-06-04T06:58:10.060Z,31.59
2018-06-04T06:59:20.166Z,31.55
2018-06-04T07:00:30.277Z,31.5
2018-06-04T07:01:40.106Z,31.47
2018-06-04T07:02:49.926Z,31.34
2018-06-04T07:03:59.774Z,31.28
2018-06-04T07:05:09.863Z,31.3
2018-06-04T07:06:19.965Z,31.23
2018-06-04T07:07:30.120Z,31.23
2018-06-04T07:08:40.321Z,31.13
2018-06-04T07:09:50.396Z,31.08
2018-06-04T07:11:00.267Z,30.89
2018-06-04T07:12:10.091Z,30.75
2018-06-04T07:13:20.185Z,30.59
2018-06-04T07:14:29.872Z,30.47
2018-06-04T07:15:40.108Z,30.34
2018-06-04T07:16:50.206Z,30.29
2018-06-04T07:18:00.054Z,30.26
2018-06-04T07:19:10.143Z,30.19
2018-06-04T07:20:20.243Z,30.26
2018-06-04T07:21:29.663Z,30.21
2018-06-04T07:22:39.881Z,30.31
2018-06-04T07:23:49.961Z,30.35
2018-06-04T07:24:59.782Z,30.35
2018-06-04T07:26:09.853Z,30.4
2018-06-04T07:27:19.936Z,30.31
2018-06-04T07:28:30.073Z,30.37
2018-06-04T07:29:39.888Z,30.31
2018-06-04T07:30:49.964Z,30.19
2018-06-04T07:32:00.042Z,30.19
2018-06-04T07:33:10.142Z,30.19
2018-06-04T07:34:20.240Z,30.21
2018-06-04T07:35:30.336Z,30.19
2018-06-04T07:36:40.159Z,30.26
2018-06-04T07:37:50.265Z,30.31
2018-06-04T07:39:00.372Z,30.31
2018-06-04T07:40:10.191Z,30.31
2018-06-04T07:41:20.428Z,30.32
2018-06-04T07:42:30.668Z,30.29
2018-06-04T07:43:40.492Z,30.42
2018-06-04T07:44:50.575Z,30.4
2018-06-04T07:46:00.719Z,30.47
2018-06-04T07:47:10.536Z,30.49
2018-06-04T07:48:20.675Z,30.54
2018-06-04T07:49:30.505Z,30.6
2018-06-04T07:50:40.595Z,30.62
2018-06-04T07:51:50.776Z,30.66
2018-06-04T07:53:00.872Z,30.66
2018-06-04T07:54:10.694Z,30.73
2018-06-04T07:55:20.789Z,30.71
2018-06-04T07:56:30.893Z,30.69
2018-06-04T07:57:41.032Z,30.77
2018-06-04T07:58:50.850Z,30.78
2018-06-04T08:00:00.927Z,30.94
2018-06-04T08:01:11.023Z,30.89
2018-06-04T08:02:21.113Z,31.01
2018-06-04T08:03:31.203Z,31.1
2018-06-04T08:04:41.289Z,31.21
2018-06-04T08:05:51.127Z,31.3
2018-06-04T08:07:01.213Z,31.33
2018-06-04T08:08:11.304Z,31.4
2018-06-04T08:09:21.388Z,31.4
2018-06-04T08:10:31.473Z,31.34
2018-06-04T08:11:41.574Z,31.36
2018-06-04T08:12:51.686Z,31.38
2018-06-04T08:14:01.772Z,31.31
2018-06-04T08:15:11.875Z,31.41
2018-06-04T08:16:21.955Z,31.3
2018-06-04T08:17:32.049Z,31.38
2018-06-04T08:18:42.130Z,31.43
2018-06-04T08:19:51.968Z,31.44
2018-06-04T08:21:02.044Z,31.44
2018-06-04T08:22:11.884Z,31.53
2018-06-04T08:23:21.708Z,31.59
2018-06-04T08:24:31.801Z,31.71
2018-06-04T08:25:41.897Z,31.8
2018-06-04T08:26:52.000Z,31.81
2018-06-04T08:28:01.848Z,31.91
2018-06-04T08:29:11.961Z,32.03
2018-06-04T08:30:21.857Z,32.1
2018-06-04T08:31:31.435Z,32.09
2018-06-04T08:32:41.554Z,32.15
2018-06-04T08:33:51.375Z,32.13
2018-06-04T08:35:01.475Z,32.27
2018-06-04T08:36:11.665Z,32.24
2018-06-04T08:37:21.745Z,32.25
2018-06-04T08:38:32.010Z,31.95
2018-06-04T08:39:42.143Z,31.74
2018-06-04T08:40:52.222Z,31.58
2018-06-04T08:42:02.067Z,31.5
2018-06-04T08:43:12.157Z,31.58
2018-06-04T08:44:21.977Z,31.94
2018-06-04T08:45:32.099Z,32.16
2018-06-04T08:46:42.271Z,32.37
2018-06-04T08:47:52.404Z,32.47
2018-06-04T08:49:02.489Z,32.64
2018-06-04T08:50:12.317Z,32.86
2018-06-04T08:51:22.189Z,33.02
2018-06-04T08:52:32.276Z,33.23
2018-06-04T08:53:42.102Z,33.41
2018-06-04T08:54:52.203Z,33.59
2018-06-04T08:56:02.027Z,33.59
2018-06-04T08:57:11.871Z,33.47
2018-06-04T08:58:21.965Z,33.63
2018-06-04T08:59:31.803Z,33.93
2018-06-04T09:00:41.912Z,34.05
2018-06-04T09:01:51.765Z,33.9
2018-06-04T09:03:01.877Z,34.1
2018-06-04T09:04:11.975Z,33.89
2018-06-04T09:05:21.804Z,33.68
2018-06-04T09:06:31.895Z,33.78
2018-06-04T09:07:41.714Z,33.9
2018-06-04T09:08:51.829Z,33.9
2018-06-04T09:10:01.981Z,34.05
2018-06-04T09:11:12.077Z,34.06
2018-06-04T09:12:21.647Z,34.03
2018-06-04T09:13:31.725Z,34.05
2018-06-04T09:14:41.816Z,34.06
2018-06-04T09:15:52.130Z,34.05
2018-06-04T09:17:01.979Z,34.12
2018-06-04T09:18:12.073Z,34.21
2018-06-04T09:19:22.159Z,34.3
2018-06-04T09:20:32.322Z,34.45
2018-06-04T09:21:42.480Z,34.55
2018-06-04T09:22:52.706Z,34.63
2018-06-04T09:24:02.793Z,34.61
2018-06-04T09:25:12.604Z,34.52
2018-06-04T09:26:22.692Z,34.49
2018-06-04T09:27:32.767Z,34.51
2018-06-04T09:28:42.593Z,34.63
2018-06-04T09:29:52.681Z,34.66
2018-06-04T09:31:02.753Z,34.69
2018-06-04T09:32:12.867Z,34.63
2018-06-04T09:33:23.071Z,34.67
2018-06-04T09:34:32.416Z,34.67
2018-06-04T09:35:42.513Z,34.52
2018-06-04T09:36:52.330Z,34.45
2018-06-04T09:38:02.160Z,34.55
2018-06-04T09:39:12.267Z,34.61
2018-06-04T09:40:22.395Z,34.24
2018-06-04T09:41:32.248Z,33.95
2018-06-04T09:42:42.363Z,34.02
2018-06-04T09:43:52.217Z,34.18
2018-06-04T09:45:02.341Z,34.29
2018-06-04T09:46:12.481Z,34.34
2018-06-04T09:47:22.301Z,34.46
2018-06-04T09:48:32.528Z,34.63
2018-06-04T09:49:42.639Z,34.78
2018-06-04T09:50:52.737Z,34.91
2018-06-04T09:52:02.614Z,34.93
2018-06-04T09:53:12.710Z,34.94
2018-06-04T09:54:22.838Z,34.78
2018-06-04T09:55:32.673Z,34.3
2018-06-04T09:56:42.769Z,34.03
2018-06-04T09:57:52.353Z,33.68
2018-06-04T09:59:02.481Z,33.52
2018-06-04T10:00:12.313Z,33.23
2018-06-04T10:01:22.422Z,33.18
2018-06-04T10:02:32.534Z,33.13
2018-06-04T10:03:42.405Z,33.36
2018-06-04T10:04:52.617Z,33.73
2018-06-04T10:06:02.712Z,34.1
2018-06-04T10:07:13.070Z,34.48
2018-06-04T10:08:26.709Z,34.89
2018-06-04T10:09:40.170Z,35.21
2018-06-04T10:10:57.118Z,35.26
2018-06-04T10:12:19.671Z,35.43
2018-06-04T10:13:41.692Z,35.62
2018-06-04T10:15:03.067Z,35.64
2018-06-04T10:16:22.938Z,35.5
2018-06-04T10:17:42.136Z,35.28
2018-06-04T10:19:01.032Z,34.78
2018-06-04T10:20:21.535Z,34.75
2018-06-04T10:21:39.367Z,34.84
2018-06-04T10:22:57.275Z,34.36
2018-06-04T10:24:14.154Z,34.22
2018-06-04T10:25:30.760Z,34.41
2018-06-04T10:26:46.967Z,34.64
2018-06-04T10:28:03.820Z,34.37
2018-06-04T10:29:17.906Z,34.17
2018-06-04T10:30:29.005Z,33.97
2018-06-04T10:31:39.176Z,33.75
2018-06-04T10:32:49.038Z,33.75
2018-06-04T10:33:59.597Z,33.73
2018-06-04T10:35:09.724Z,33.61
2018-06-04T10:36:19.811Z,33.9
2018-06-04T10:37:29.895Z,34.15
2018-06-04T10:38:39.749Z,34.4
2018-06-04T10:39:49.870Z,34.61
2018-06-04T10:40:59.718Z,34.78
2018-06-04T10:42:09.822Z,34.9
2018-06-04T10:43:19.959Z,35.06
2018-06-04T10:44:32.277Z,35.13
2018-06-04T10:45:50.557Z,35.21
2018-06-04T10:47:06.349Z,35.26
2018-06-04T10:48:19.738Z,35.2
2018-06-04T10:49:33.793Z,35.21
2018-06-04T10:50:48.135Z,35.26
2018-06-04T10:52:01.103Z,35.33
2018-06-04T10:53:14.217Z,35.38
2018-06-04T10:54:26.858Z,35.47
2018-06-04T10:55:40.130Z,35.46
2018-06-04T10:56:53.868Z,35.55
2018-06-04T10:58:06.674Z,35.38
2018-06-04T10:59:18.689Z,35.55
2018-06-04T11:00:28.512Z,35.79
2018-06-04T11:01:38.656Z,35.87
2018-06-04T11:02:48.734Z,36.21
2018-06-04T11:03:58.835Z,36.05
2018-06-04T11:05:08.954Z,36.08
2018-06-04T11:06:19.064Z,35.8
2018-06-04T11:07:29.166Z,35.4
2018-06-04T11:08:39.252Z,35.55
2018-06-04T11:09:49.349Z,35.58
2018-06-04T11:10:59.161Z,35.71
2018-06-04T11:12:09.264Z,35.79
2018-06-04T11:13:19.200Z,35.64
2018-06-04T11:14:29.513Z,35.67
2018-06-04T11:15:39.643Z,35.6
2018-06-04T11:16:49.741Z,35.62
2018-06-04T11:17:59.588Z,35.76
2018-06-04T11:19:24.363Z,35.92
2018-06-04T11:20:34.463Z,36.06
2018-06-04T11:21:44.598Z,36.08
2018-06-04T11:22:54.428Z,36.21
2018-06-04T11:24:04.265Z,36.19
2018-06-04T11:25:14.355Z,36.24
2018-06-04T11:26:24.448Z,35.8
2018-06-04T11:27:34.576Z,35.35
2018-06-04T11:28:44.678Z,35.09
2018-06-04T11:29:54.767Z,34.72
2018-06-04T11:31:04.901Z,34.41
2018-06-04T11:32:15.025Z,34.29
2018-06-04T11:33:24.868Z,34.15
2018-06-04T11:34:34.719Z,34.12
2018-06-04T11:35:44.824Z,33.97
2018-06-04T11:36:54.935Z,33.89
2018-06-04T11:38:05.038Z,33.85
2018-06-04T11:39:15.134Z,33.83
2018-06-04T11:40:25.246Z,33.77
2018-06-04T11:41:35.365Z,33.74
2018-06-04T11:42:45.453Z,33.73
2018-06-04T11:43:55.707Z,33.74
2018-06-04T11:45:05.985Z,33.73
2018-06-04T11:46:16.069Z,33.73
2018-06-04T11:47:26.175Z,33.73
2018-06-04T11:48:36.340Z,33.62
2018-06-04T11:49:46.436Z,33.53
2018-06-04T11:50:56.541Z,33.55
2018-06-04T11:52:06.649Z,33.85
2018-06-04T11:53:16.488Z,34.17
2018-06-04T11:54:26.599Z,34.24
2018-06-04T11:55:36.482Z,34.37
2018-06-04T11:56:46.904Z,34.06
2018-06-04T11:57:57.135Z,33.95
2018-06-04T11:59:07.217Z,34.1
2018-06-04T12:00:17.310Z,33.63
2018-06-04T12:01:27.401Z,33.48
2018-06-04T12:02:37.496Z,33.32
2018-06-04T12:03:47.314Z,33.28
2018-06-04T12:04:57.406Z,33.23
2018-06-04T12:06:07.257Z,33.74
2018-06-04T12:07:17.342Z,34.03
2018-06-04T12:08:27.662Z,34.49
2018-06-04T12:09:37.492Z,34.74
2018-06-04T12:10:47.548Z,34.96
2018-06-04T12:11:57.425Z,35.18
2018-06-04T12:13:07.524Z,35.27
2018-06-04T12:14:17.621Z,35.5
2018-06-04T12:15:27.711Z,35.58
2018-06-04T12:16:37.530Z,35.74
2018-06-04T12:17:47.679Z,35.8
2018-06-04T12:18:57.784Z,35.95
2018-06-04T12:20:08.559Z,35.98
2018-06-04T12:21:19.792Z,35.67
2018-06-04T12:22:30.217Z,35.47
2018-06-04T12:23:40.805Z,35.47
2018-06-04T12:24:51.212Z,35.62
2018-06-04T12:26:01.321Z,35.76
2018-06-04T12:27:11.046Z,36.05
2018-06-04T12:28:21.230Z,36.25
2018-06-04T12:29:31.130Z,36.43
2018-06-04T12:30:41.216Z,36.53
2018-06-04T12:31:51.333Z,36.51
2018-06-04T12:33:01.417Z,36.56
2018-06-04T12:34:11.515Z,36.43
2018-06-04T12:35:21.614Z,36.08
2018-06-04T12:36:31.719Z,35.77
2018-06-04T12:37:41.818Z,35.65
2018-06-04T12:38:52.166Z,35.45
2018-06-04T12:40:02.264Z,35.43
2018-06-04T12:41:12.361Z,35.38
2018-06-04T12:42:22.473Z,35.38
2018-06-04T12:43:32.339Z,35.3
2018-06-04T12:44:42.196Z,35.31
2018-06-04T12:45:52.295Z,35.24
2018-06-04T12:47:02.406Z,35.11
2018-06-04T12:48:12.651Z,35.11
2018-06-04T12:49:22.479Z,34.99
2018-06-04T12:50:32.596Z,35.01
2018-06-04T12:51:42.702Z,35.02
2018-06-04T12:52:52.524Z,35.01
2018-06-04T12:54:02.605Z,35.06
2018-06-04T12:55:12.702Z,35.28
2018-06-04T12:56:22.800Z,35.6
2018-06-04T12:57:32.915Z,35.83
2018-06-04T12:58:43.004Z,36.15
2018-06-04T12:59:53.098Z,36.26
2018-06-04T13:01:03.191Z,36.37
2018-06-04T13:02:13.023Z,36.44
2018-06-04T13:03:23.117Z,36.55
2018-06-04T13:04:33.342Z,36.68
2018-06-04T13:05:43.694Z,36.65
2018-06-04T13:06:53.788Z,36.78
2018-06-04T13:08:03.654Z,36.83
2018-06-04T13:09:13.749Z,36.93
2018-06-04T13:10:23.974Z,37.05
2018-06-04T13:11:34.242Z,37.05
2018-06-04T13:12:44.092Z,37.07
2018-06-04T13:13:54.185Z,37.15
2018-06-04T13:15:04.277Z,37.23
2018-06-04T13:16:14.404Z,37.22
2018-06-04T13:17:24.505Z,37.3
2018-06-04T13:18:34.323Z,37.22
2018-06-04T13:19:44.418Z,37.11
2018-06-04T13:20:54.520Z,37.27
2018-06-04T13:22:04.653Z,37.19
2018-06-04T13:23:14.765Z,37.19
2018-06-04T13:24:24.859Z,37.14
2018-06-04T13:25:34.696Z,37.19
2018-06-04T13:26:44.525Z,37.18
2018-06-04T13:27:54.596Z,37.24
2018-06-04T13:29:04.708Z,37.24
2018-06-04T13:30:14.539Z,37.05
2018-06-04T13:31:24.610Z,37.08
2018-06-04T13:32:34.722Z,37.04
2018-06-04T13:33:44.920Z,36.75
2018-06-04T13:34:55.008Z,36.47
2018-06-04T13:36:05.092Z,36.4
2018-06-04T13:37:15.181Z,36.39
2018-06-04T13:38:25.048Z,36.62
2018-06-04T13:39:35.519Z,36.55
2018-06-04T13:40:45.528Z,36.37
2018-06-04T13:41:55.630Z,36.32
2018-06-04T13:43:05.744Z,36.09
2018-06-04T13:44:15.840Z,35.92
2018-06-04T13:45:25.406Z,35.87
2018-06-04T13:46:35.235Z,35.82
2018-06-04T13:47:45.563Z,35.8
2018-06-04T13:48:55.662Z,35.77
2018-06-04T13:50:05.744Z,35.74
2018-06-04T13:51:15.833Z,35.76
2018-06-04T13:52:25.651Z,35.89
2018-06-04T13:53:35.762Z,36.01
2018-06-04T13:54:45.839Z,36.24
2018-06-04T13:55:55.657Z,36.44
2018-06-04T13:57:05.755Z,36.65
2018-06-04T13:58:15.872Z,36.8
2018-06-04T13:59:25.966Z,36.9
2018-06-04T14:00:35.814Z,37.14
2018-06-04T14:01:45.925Z,37.19
2018-06-04T14:02:55.802Z,37.07
2018-06-04T14:04:05.374Z,36.93
2018-06-04T14:05:15.454Z,36.86
2018-06-04T14:06:25.562Z,36.71
2018-06-04T14:07:35.659Z,36.56
2018-06-04T14:08:45.785Z,36.46
2018-06-04T14:09:55.978Z,36.34
2018-06-04T14:11:05.849Z,36.09
2018-06-04T14:12:15.704Z,35.96
2018-06-04T14:13:25.538Z,36.01
2018-06-04T14:14:35.432Z,36.19
2018-06-04T14:15:45.557Z,36.25
2018-06-04T14:16:55.641Z,36.06
2018-06-04T14:18:05.728Z,35.96
2018-06-04T14:19:15.555Z,35.95
2018-06-04T14:20:25.654Z,36.05
2018-06-04T14:21:35.459Z,36.04
2018-06-04T14:22:45.565Z,36.05
2018-06-04T14:23:55.708Z,36.22
2018-06-04T14:25:05.552Z,36.36
2018-06-04T14:26:15.384Z,36.32
2018-06-04T14:27:25.533Z,36.06
2018-06-04T14:28:35.724Z,35.98
2018-06-04T14:29:45.841Z,35.76
2018-06-04T14:30:55.667Z,35.67
2018-06-04T14:32:05.564Z,35.5
2018-06-04T14:33:15.651Z,35.58
2018-06-04T14:34:25.786Z,35.55
2018-06-04T14:35:35.880Z,35.52
2018-06-04T14:36:45.729Z,35.53
2018-06-04T14:37:55.835Z,35.45
2018-06-04T14:39:05.736Z,35.46
2018-06-04T14:40:15.758Z,35.49
2018-06-04T14:41:25.875Z,35.38
2018-06-04T14:42:35.993Z,35.33
2018-06-04T14:43:46.075Z,35.27
2018-06-04T14:44:56.151Z,35.12
2018-06-04T14:46:06.250Z,35.12
2018-06-04T14:47:16.343Z,34.94
2018-06-04T14:48:26.447Z,35.02
2018-06-04T14:49:36.730Z,35.09
2018-06-04T14:50:46.949Z,34.91
2018-06-04T14:51:57.028Z,34.83
2018-06-04T14:53:07.167Z,34.89
2018-06-04T14:54:17.260Z,34.83
2018-06-04T14:55:27.367Z,34.78
2018-06-04T14:56:37.351Z,34.67
2018-06-04T14:57:47.296Z,34.51
2018-06-04T14:58:57.412Z,34.32
2018-06-04T15:00:07.272Z,34.22
2018-06-04T15:01:17.156Z,34.15
2018-06-04T15:02:26.968Z,34.19
2018-06-04T15:03:37.077Z,34.1
2018-06-04T15:04:47.175Z,34.02
2018-06-04T15:05:57.259Z,33.97
2018-06-04T15:07:07.090Z,34
2018-06-04T15:08:17.190Z,33.92
2018-06-04T15:09:27.326Z,34.03
2018-06-04T15:10:37.157Z,33.97
2018-06-04T15:11:46.999Z,33.92
2018-06-04T15:12:57.099Z,33.87
2018-06-04T15:14:07.204Z,33.87
2018-06-04T15:15:17.213Z,33.73
2018-06-04T15:16:27.395Z,33.78
2018-06-04T15:17:37.717Z,33.61
2018-06-04T15:18:47.798Z,33.58
2018-06-04T15:19:57.894Z,33.59
2018-06-04T15:21:07.967Z,33.55
2018-06-04T15:22:18.041Z,33.52
2018-06-04T15:23:28.134Z,33.47
2018-06-04T15:24:37.953Z,33.46
2018-06-04T15:25:48.051Z,33.43
2018-06-04T15:26:58.143Z,33.44
2018-06-04T15:28:08.232Z,33.44
2018-06-04T15:29:17.837Z,33.5
2018-06-04T15:30:27.944Z,33.47
2018-06-04T15:31:38.065Z,33.52
2018-06-04T15:32:48.185Z,33.59
2018-06-04T15:33:58.270Z,33.63
2018-06-04T15:35:08.395Z,33.63
2018-06-04T15:36:18.487Z,33.61
2018-06-04T15:37:28.585Z,33.61
2018-06-04T15:38:38.748Z,33.61
2018-06-04T15:39:48.852Z,33.68